GJS4182 KIAH-KLBB
Flight info
| Callsign | GJS4182 |
|---|---|
| Flight time | 1h 13m |
| Altitude | 26000 |
| Route | PITZZ5 CRGER JCT SJT |
| Aircraft | CRJ7/M-SDFGIRWY/S |
Departure
| Time | 2026-04-23 21:23 |
|---|---|
| Airport | George Bush Intercontinental Airport (KIAH) |
Arrival
| Time | 2026-04-23 22:37 |
|---|---|
| Airport | Lubbock Preston Smith International Airport (KLBB) |
| Time | Latitude | Longitude | Altitude | Speed | Heading |
|---|---|---|---|---|---|
| 2026-04-23 21:01 | 29.98456 | -95.34594 | 100 ft | 0 kts | 44° |
| 2026-04-23 21:12 | 29.98443 | -95.34611 | 100 ft | 3 kts | 64° |
| 2026-04-23 21:13 | 29.98442 | -95.34630 | 100 ft | 0 kts | 110° |
| 2026-04-23 21:13 | 29.98436 | -95.34621 | 100 ft | 3 kts | 149° |
| 2026-04-23 21:13 | 29.98450 | -95.34627 | 100 ft | 0 kts | 181° |
| 2026-04-23 21:16 | 29.98449 | -95.34627 | 100 ft | 1 kts | 181° |
| 2026-04-23 21:16 | 29.98422 | -95.34627 | 99 ft | 7 kts | 185° |
| 2026-04-23 21:16 | 29.98385 | -95.34665 | 99 ft | 8 kts | 257° |
| 2026-04-23 21:16 | 29.98382 | -95.34734 | 100 ft | 9 kts | 269° |
| 2026-04-23 21:17 | 29.98381 | -95.34815 | 100 ft | 10 kts | 271° |
| 2026-04-23 21:17 | 29.98382 | -95.34889 | 100 ft | 11 kts | 270° |
| 2026-04-23 21:17 | 29.98382 | -95.34987 | 100 ft | 14 kts | 270° |
| 2026-04-23 21:17 | 29.98383 | -95.35109 | 100 ft | 16 kts | 270° |
| 2026-04-23 21:18 | 29.98398 | -95.35206 | 100 ft | 11 kts | 311° |
| 2026-04-23 21:18 | 29.98469 | -95.35256 | 100 ft | 13 kts | 332° |
| 2026-04-23 21:18 | 29.98549 | -95.35305 | 101 ft | 14 kts | 332° |
| 2026-04-23 21:18 | 29.98637 | -95.35357 | 101 ft | 15 kts | 332° |
| 2026-04-23 21:19 | 29.98729 | -95.35415 | 101 ft | 16 kts | 332° |
| 2026-04-23 21:19 | 29.98819 | -95.35469 | 101 ft | 13 kts | 332° |
| 2026-04-23 21:19 | 29.98882 | -95.35541 | 102 ft | 11 kts | 278° |
| 2026-04-23 21:19 | 29.98870 | -95.35588 | 102 ft | 0 kts | 242° |
| 2026-04-23 21:20 | 29.98861 | -95.35607 | 102 ft | 8 kts | 242° |
| 2026-04-23 21:20 | 29.98833 | -95.35667 | 102 ft | 9 kts | 242° |
| 2026-04-23 21:20 | 29.98829 | -95.35677 | 102 ft | 0 kts | 242° |
| 2026-04-23 21:21 | 29.98823 | -95.35690 | 103 ft | 6 kts | 241° |
| 2026-04-23 21:22 | 29.98806 | -95.35725 | 103 ft | 8 kts | 240° |
| 2026-04-23 21:22 | 29.98757 | -95.35758 | 104 ft | 9 kts | 177° |
| 2026-04-23 21:22 | 29.98733 | -95.35748 | 104 ft | 0 kts | 152° |
| 2026-04-23 21:23 | 29.98700 | -95.35728 | 103 ft | 25 kts | 152° |
| 2026-04-23 21:23 | 29.98281 | -95.35472 | 101 ft | 110 kts | 152° |
| 2026-04-23 21:23 | 29.97415 | -95.34942 | 271 ft | 164 kts | 151° |
| 2026-04-23 21:23 | 29.96289 | -95.34283 | 826 ft | 194 kts | 151° |
| 2026-04-23 21:24 | 29.94991 | -95.33596 | 1462 ft | 213 kts | 161° |
| 2026-04-23 21:24 | 29.93574 | -95.33766 | 1836 ft | 211 kts | 208° |
| 2026-04-23 21:24 | 29.92701 | -95.35099 | 2280 ft | 219 kts | 251° |
| 2026-04-23 21:24 | 29.92357 | -95.36832 | 2741 ft | 226 kts | 252° |
| 2026-04-23 21:25 | 29.91799 | -95.38581 | 3242 ft | 241 kts | 241° |
| 2026-04-23 21:25 | 29.90928 | -95.40282 | 3909 ft | 246 kts | 231° |
| 2026-04-23 21:25 | 29.89782 | -95.41814 | 4464 ft | 259 kts | 224° |
| 2026-04-23 21:25 | 29.88517 | -95.43312 | 5213 ft | 263 kts | 228° |
| 2026-04-23 21:26 | 29.87442 | -95.45037 | 6004 ft | 267 kts | 236° |
| 2026-04-23 21:26 | 29.86484 | -95.46894 | 6743 ft | 271 kts | 239° |
| 2026-04-23 21:26 | 29.85557 | -95.48791 | 7480 ft | 272 kts | 240° |
| 2026-04-23 21:26 | 29.84641 | -95.50702 | 8227 ft | 273 kts | 242° |
| 2026-04-23 21:27 | 29.83727 | -95.52637 | 9038 ft | 275 kts | 242° |
| 2026-04-23 21:27 | 29.82913 | -95.54668 | 9633 ft | 288 kts | 257° |
| 2026-04-23 21:27 | 29.82985 | -95.57007 | 9879 ft | 299 kts | 284° |
| 2026-04-23 21:27 | 29.83736 | -95.59227 | 9938 ft | 305 kts | 295° |
| 2026-04-23 21:28 | 29.84771 | -95.61364 | 9982 ft | 308 kts | 299° |
| 2026-04-23 21:28 | 29.85881 | -95.63453 | 10416 ft | 308 kts | 300° |
| 2026-04-23 21:28 | 29.87053 | -95.65626 | 10978 ft | 330 kts | 300° |
| 2026-04-23 21:28 | 29.88251 | -95.67932 | 11749 ft | 337 kts | 299° |
| 2026-04-23 21:29 | 29.89440 | -95.70328 | 12283 ft | 349 kts | 298° |
| 2026-04-23 21:29 | 29.90633 | -95.72778 | 13031 ft | 352 kts | 298° |
| 2026-04-23 21:29 | 29.91845 | -95.75247 | 13784 ft | 356 kts | 298° |
| 2026-04-23 21:29 | 29.93071 | -95.77734 | 14489 ft | 358 kts | 298° |
| 2026-04-23 21:30 | 29.94305 | -95.80237 | 15220 ft | 360 kts | 298° |
| 2026-04-23 21:30 | 29.95548 | -95.82761 | 15924 ft | 363 kts | 298° |
| 2026-04-23 21:30 | 29.96797 | -95.85299 | 16602 ft | 365 kts | 298° |
| 2026-04-23 21:30 | 29.98055 | -95.87856 | 17261 ft | 368 kts | 298° |
| 2026-04-23 21:31 | 29.99321 | -95.90430 | 17894 ft | 371 kts | 298° |
| 2026-04-23 21:31 | 30.00595 | -95.93028 | 18459 ft | 373 kts | 298° |
| 2026-04-23 21:31 | 30.01878 | -95.95641 | 18977 ft | 375 kts | 298° |
| 2026-04-23 21:31 | 30.03170 | -95.98267 | 19497 ft | 377 kts | 299° |
| 2026-04-23 21:32 | 30.04468 | -96.00910 | 20021 ft | 380 kts | 298° |
| 2026-04-23 21:32 | 30.05773 | -96.03572 | 20519 ft | 382 kts | 298° |
| 2026-04-23 21:32 | 30.06973 | -96.06310 | 20976 ft | 384 kts | 289° |
| 2026-04-23 21:32 | 30.07672 | -96.09292 | 21424 ft | 387 kts | 282° |
| 2026-04-23 21:33 | 30.08140 | -96.12360 | 21888 ft | 389 kts | 279° |
| 2026-04-23 21:33 | 30.08552 | -96.15449 | 22321 ft | 391 kts | 279° |
| 2026-04-23 21:33 | 30.08974 | -96.18566 | 22764 ft | 394 kts | 280° |
| 2026-04-23 21:33 | 30.09417 | -96.21694 | 23183 ft | 396 kts | 281° |
| 2026-04-23 21:34 | 30.09891 | -96.24832 | 23577 ft | 397 kts | 281° |
| 2026-04-23 21:34 | 30.10375 | -96.27973 | 23972 ft | 398 kts | 281° |
| 2026-04-23 21:34 | 30.10860 | -96.31120 | 24368 ft | 398 kts | 281° |
| 2026-04-23 21:34 | 30.11343 | -96.34268 | 24767 ft | 399 kts | 281° |
| 2026-04-23 21:35 | 30.11827 | -96.37426 | 25147 ft | 400 kts | 281° |
| 2026-04-23 21:35 | 30.12311 | -96.40598 | 25443 ft | 403 kts | 281° |
| 2026-04-23 21:35 | 30.12800 | -96.43804 | 25593 ft | 409 kts | 281° |
| 2026-04-23 21:35 | 30.13299 | -96.47066 | 25661 ft | 417 kts | 281° |
| 2026-04-23 21:36 | 30.14321 | -96.53783 | 25713 ft | 431 kts | 281° |
| 2026-04-23 21:36 | 30.14840 | -96.57211 | 25722 ft | 436 kts | 281° |
| 2026-04-23 21:36 | 30.15357 | -96.60640 | 25746 ft | 431 kts | 281° |
| 2026-04-23 21:37 | 30.15869 | -96.64031 | 25764 ft | 426 kts | 281° |
| 2026-04-23 21:37 | 30.16375 | -96.67390 | 25788 ft | 422 kts | 281° |
| 2026-04-23 21:37 | 30.16870 | -96.70677 | 25796 ft | 419 kts | 281° |
| 2026-04-23 21:37 | 30.17369 | -96.73990 | 25825 ft | 418 kts | 281° |
| 2026-04-23 21:38 | 30.17864 | -96.77291 | 25836 ft | 416 kts | 281° |
| 2026-04-23 21:38 | 30.18357 | -96.80585 | 25853 ft | 415 kts | 281° |
| 2026-04-23 21:38 | 30.18847 | -96.83865 | 25871 ft | 414 kts | 281° |
| 2026-04-23 21:38 | 30.19334 | -96.87141 | 25887 ft | 413 kts | 280° |
| 2026-04-23 21:39 | 30.19389 | -96.90454 | 25885 ft | 417 kts | 264° |
| 2026-04-23 21:39 | 30.18474 | -96.93652 | 25894 ft | 425 kts | 246° |
| 2026-04-23 21:39 | 30.17055 | -96.96646 | 25888 ft | 421 kts | 252° |
| 2026-04-23 21:39 | 30.16434 | -96.99889 | 25898 ft | 411 kts | 270° |
| 2026-04-23 21:40 | 30.16403 | -97.03185 | 25907 ft | 410 kts | 269° |
| 2026-04-23 21:40 | 30.16168 | -97.06474 | 25904 ft | 409 kts | 272° |
| 2026-04-23 21:40 | 30.16679 | -97.09669 | 25899 ft | 405 kts | 291° |
| 2026-04-23 21:40 | 30.17864 | -97.12617 | 25900 ft | 405 kts | 295° |
| 2026-04-23 21:41 | 30.19011 | -97.15589 | 25880 ft | 405 kts | 291° |
| 2026-04-23 21:41 | 30.19906 | -97.18673 | 25870 ft | 405 kts | 286° |
| 2026-04-23 21:41 | 30.20608 | -97.21823 | 25860 ft | 405 kts | 283° |
| 2026-04-23 21:41 | 30.21175 | -97.25011 | 25848 ft | 405 kts | 283° |
| 2026-04-23 21:42 | 30.21872 | -97.28191 | 25842 ft | 410 kts | 285° |
| 2026-04-23 21:42 | 30.22641 | -97.31384 | 25831 ft | 414 kts | 286° |
| 2026-04-23 21:42 | 30.23428 | -97.34604 | 25832 ft | 419 kts | 285° |
| 2026-04-23 21:42 | 30.24184 | -97.37869 | 25833 ft | 422 kts | 285° |
| 2026-04-23 21:43 | 30.24927 | -97.41168 | 25845 ft | 425 kts | 285° |
| 2026-04-23 21:43 | 30.25675 | -97.44470 | 25839 ft | 425 kts | 285° |
| 2026-04-23 21:43 | 30.26422 | -97.47776 | 25842 ft | 424 kts | 285° |
| 2026-04-23 21:43 | 30.27169 | -97.51080 | 25837 ft | 424 kts | 285° |
| 2026-04-23 21:44 | 30.27913 | -97.54376 | 25834 ft | 424 kts | 285° |
| 2026-04-23 21:44 | 30.28657 | -97.57671 | 25842 ft | 423 kts | 285° |
| 2026-04-23 21:44 | 30.29397 | -97.60966 | 25836 ft | 423 kts | 285° |
| 2026-04-23 21:44 | 30.30139 | -97.64254 | 25857 ft | 422 kts | 285° |
| 2026-04-23 21:45 | 30.30882 | -97.67543 | 25851 ft | 422 kts | 284° |
| 2026-04-23 21:45 | 30.31622 | -97.70830 | 25852 ft | 422 kts | 284° |
| 2026-04-23 21:45 | 30.32346 | -97.74115 | 25852 ft | 421 kts | 284° |
| 2026-04-23 21:45 | 30.33038 | -97.77406 | 25846 ft | 421 kts | 283° |
| 2026-04-23 21:46 | 30.33733 | -97.80706 | 25844 ft | 421 kts | 284° |
| 2026-04-23 21:46 | 30.34428 | -97.83996 | 25881 ft | 421 kts | 284° |
| 2026-04-23 21:46 | 30.35123 | -97.87283 | 25890 ft | 421 kts | 284° |
| 2026-04-23 21:46 | 30.35818 | -97.90567 | 25889 ft | 420 kts | 284° |
| 2026-04-23 21:47 | 30.36511 | -97.93858 | 25890 ft | 420 kts | 284° |
| 2026-04-23 21:47 | 30.37203 | -97.97144 | 25893 ft | 420 kts | 284° |
| 2026-04-23 21:47 | 30.37896 | -98.00433 | 25897 ft | 420 kts | 284° |
| 2026-04-23 21:47 | 30.38584 | -98.03717 | 25895 ft | 420 kts | 284° |
| 2026-04-23 21:48 | 30.39275 | -98.07002 | 25891 ft | 420 kts | 284° |
| 2026-04-23 21:48 | 30.39963 | -98.10285 | 25895 ft | 420 kts | 284° |
| 2026-04-23 21:48 | 30.40649 | -98.13567 | 25887 ft | 420 kts | 283° |
| 2026-04-23 21:48 | 30.41336 | -98.16854 | 25875 ft | 419 kts | 283° |
| 2026-04-23 21:49 | 30.42020 | -98.20135 | 25852 ft | 419 kts | 283° |
| 2026-04-23 21:49 | 30.42706 | -98.23421 | 25856 ft | 419 kts | 283° |
| 2026-04-23 21:49 | 30.43393 | -98.26702 | 25856 ft | 419 kts | 283° |
| 2026-04-23 21:49 | 30.44070 | -98.29940 | 25858 ft | 419 kts | 283° |
| 2026-04-23 21:50 | 30.44744 | -98.33224 | 25859 ft | 419 kts | 282° |
| 2026-04-23 21:50 | 30.45266 | -98.36547 | 25862 ft | 419 kts | 279° |
| 2026-04-23 21:50 | 30.45624 | -98.39902 | 25859 ft | 419 kts | 276° |
| 2026-04-23 21:50 | 30.45914 | -98.43263 | 25862 ft | 419 kts | 276° |
| 2026-04-23 21:51 | 30.46214 | -98.46619 | 25856 ft | 419 kts | 277° |
| 2026-04-23 21:51 | 30.46551 | -98.49971 | 25853 ft | 419 kts | 277° |
| 2026-04-23 21:51 | 30.46899 | -98.53327 | 25850 ft | 419 kts | 277° |
| 2026-04-23 21:51 | 30.47249 | -98.56648 | 25846 ft | 419 kts | 277° |
| 2026-04-23 21:52 | 30.47606 | -98.60033 | 25849 ft | 419 kts | 277° |
| 2026-04-23 21:52 | 30.47958 | -98.63382 | 25837 ft | 419 kts | 277° |
| 2026-04-23 21:52 | 30.48309 | -98.66736 | 25826 ft | 419 kts | 277° |
| 2026-04-23 21:52 | 30.48654 | -98.70065 | 25822 ft | 419 kts | 277° |
| 2026-04-23 21:53 | 30.49004 | -98.73448 | 25821 ft | 419 kts | 277° |
| 2026-04-23 21:53 | 30.49351 | -98.76798 | 25819 ft | 419 kts | 277° |
| 2026-04-23 21:53 | 30.49696 | -98.80155 | 25816 ft | 419 kts | 277° |
| 2026-04-23 21:53 | 30.50033 | -98.83428 | 25817 ft | 419 kts | 277° |
| 2026-04-23 21:54 | 30.50386 | -98.86862 | 25809 ft | 419 kts | 277° |
| 2026-04-23 21:54 | 30.50730 | -98.90214 | 25803 ft | 419 kts | 277° |
| 2026-04-23 21:54 | 30.51072 | -98.93567 | 25799 ft | 419 kts | 277° |
| 2026-04-23 21:54 | 30.51402 | -98.96812 | 25800 ft | 418 kts | 277° |
| 2026-04-23 21:55 | 30.51754 | -99.00272 | 25796 ft | 418 kts | 277° |
| 2026-04-23 21:55 | 30.52095 | -99.03622 | 25793 ft | 418 kts | 277° |
| 2026-04-23 21:55 | 30.52432 | -99.06968 | 25795 ft | 418 kts | 277° |
| 2026-04-23 21:55 | 30.52770 | -99.10320 | 25795 ft | 418 kts | 277° |
| 2026-04-23 21:56 | 30.53107 | -99.13670 | 25791 ft | 418 kts | 277° |
| 2026-04-23 21:56 | 30.53443 | -99.17016 | 25789 ft | 418 kts | 277° |
| 2026-04-23 21:56 | 30.53777 | -99.20365 | 25789 ft | 418 kts | 277° |
| 2026-04-23 21:56 | 30.54111 | -99.23711 | 25784 ft | 418 kts | 277° |
| 2026-04-23 21:57 | 30.54444 | -99.27054 | 25780 ft | 417 kts | 277° |
| 2026-04-23 21:57 | 30.54777 | -99.30401 | 25784 ft | 417 kts | 277° |
| 2026-04-23 21:57 | 30.55109 | -99.33750 | 25788 ft | 417 kts | 277° |
| 2026-04-23 21:57 | 30.55435 | -99.37050 | 25791 ft | 417 kts | 277° |
| 2026-04-23 21:58 | 30.55764 | -99.40395 | 25793 ft | 417 kts | 276° |
| 2026-04-23 21:58 | 30.56092 | -99.43739 | 25797 ft | 417 kts | 276° |
| 2026-04-23 21:58 | 30.56420 | -99.47084 | 25810 ft | 417 kts | 276° |
| 2026-04-23 21:58 | 30.56745 | -99.50427 | 25822 ft | 417 kts | 276° |
| 2026-04-23 21:59 | 30.57071 | -99.53771 | 25827 ft | 417 kts | 276° |
| 2026-04-23 21:59 | 30.57397 | -99.57116 | 25838 ft | 417 kts | 276° |
| 2026-04-23 21:59 | 30.57721 | -99.60463 | 25836 ft | 417 kts | 276° |
| 2026-04-23 22:00 | 30.58367 | -99.67155 | 25839 ft | 417 kts | 276° |
| 2026-04-23 22:00 | 30.58688 | -99.70496 | 25840 ft | 417 kts | 276° |
| 2026-04-23 22:00 | 30.59017 | -99.73836 | 25847 ft | 416 kts | 278° |
| 2026-04-23 22:00 | 30.59864 | -99.77036 | 25842 ft | 418 kts | 295° |
| 2026-04-23 22:01 | 30.61501 | -99.79835 | 25844 ft | 421 kts | 303° |
| 2026-04-23 22:01 | 30.63279 | -99.82541 | 25842 ft | 421 kts | 304° |
| 2026-04-23 22:01 | 30.65102 | -99.85207 | 25839 ft | 422 kts | 306° |
| 2026-04-23 22:01 | 30.66985 | -99.87824 | 25822 ft | 423 kts | 309° |
| 2026-04-23 22:02 | 30.69308 | -99.89975 | 25816 ft | 432 kts | 322° |
| 2026-04-23 22:02 | 30.71876 | -99.91786 | 25806 ft | 433 kts | 324° |
| 2026-04-23 22:02 | 30.74441 | -99.93614 | 25797 ft | 432 kts | 322° |
| 2026-04-23 22:02 | 30.76932 | -99.95556 | 25785 ft | 430 kts | 320° |
| 2026-04-23 22:03 | 30.79368 | -99.97572 | 25778 ft | 430 kts | 319° |
| 2026-04-23 22:03 | 30.81809 | -99.99589 | 25769 ft | 431 kts | 320° |
| 2026-04-23 22:03 | 30.84259 | -100.01597 | 25771 ft | 431 kts | 320° |
| 2026-04-23 22:03 | 30.86711 | -100.03604 | 25768 ft | 431 kts | 320° |
| 2026-04-23 22:04 | 30.89163 | -100.05612 | 25771 ft | 431 kts | 320° |
| 2026-04-23 22:04 | 30.91615 | -100.07621 | 25771 ft | 431 kts | 320° |
| 2026-04-23 22:04 | 30.94071 | -100.09632 | 25772 ft | 431 kts | 320° |
| 2026-04-23 22:04 | 30.96523 | -100.11641 | 25769 ft | 431 kts | 320° |
| 2026-04-23 22:05 | 30.98947 | -100.13628 | 25768 ft | 431 kts | 320° |
| 2026-04-23 22:05 | 31.01434 | -100.15668 | 25765 ft | 432 kts | 320° |
| 2026-04-23 22:05 | 31.03858 | -100.17657 | 25766 ft | 432 kts | 320° |
| 2026-04-23 22:05 | 31.06310 | -100.19675 | 25768 ft | 432 kts | 320° |
| 2026-04-23 22:06 | 31.08767 | -100.21693 | 25765 ft | 432 kts | 320° |
| 2026-04-23 22:06 | 31.11222 | -100.23716 | 25770 ft | 432 kts | 320° |
| 2026-04-23 22:06 | 31.13677 | -100.25736 | 25772 ft | 432 kts | 320° |
| 2026-04-23 22:06 | 31.16133 | -100.27761 | 25777 ft | 432 kts | 320° |
| 2026-04-23 22:07 | 31.18528 | -100.29732 | 25782 ft | 432 kts | 320° |
| 2026-04-23 22:07 | 31.20983 | -100.31757 | 25789 ft | 432 kts | 320° |
| 2026-04-23 22:07 | 31.23437 | -100.33785 | 25791 ft | 432 kts | 320° |
| 2026-04-23 22:07 | 31.25893 | -100.35814 | 25795 ft | 432 kts | 320° |
| 2026-04-23 22:08 | 31.28347 | -100.37844 | 25801 ft | 432 kts | 320° |
| 2026-04-23 22:08 | 31.30807 | -100.39874 | 25806 ft | 433 kts | 320° |
| 2026-04-23 22:08 | 31.33267 | -100.41902 | 25803 ft | 433 kts | 320° |
| 2026-04-23 22:08 | 31.35724 | -100.43933 | 25802 ft | 433 kts | 320° |
| 2026-04-23 22:09 | 31.38301 | -100.45785 | 25804 ft | 438 kts | 327° |
| 2026-04-23 22:09 | 31.41058 | -100.47321 | 25805 ft | 441 kts | 331° |
| 2026-04-23 22:09 | 31.43907 | -100.48677 | 25807 ft | 443 kts | 333° |
| 2026-04-23 22:09 | 31.46781 | -100.49977 | 25805 ft | 443 kts | 333° |
| 2026-04-23 22:10 | 31.48678 | -100.50839 | 25793 ft | 442 kts | 333° |
| 2026-04-23 22:10 | 31.52486 | -100.52657 | 25784 ft | 442 kts | 332° |
| 2026-04-23 22:10 | 31.55329 | -100.54030 | 25777 ft | 442 kts | 332° |
| 2026-04-23 22:10 | 31.57213 | -100.54939 | 25769 ft | 442 kts | 332° |
| 2026-04-23 22:11 | 31.60053 | -100.56316 | 25756 ft | 442 kts | 332° |
| 2026-04-23 22:11 | 31.62896 | -100.57689 | 25752 ft | 442 kts | 332° |
| 2026-04-23 22:11 | 31.65738 | -100.59066 | 25734 ft | 442 kts | 332° |
| 2026-04-23 22:11 | 31.68578 | -100.60443 | 25712 ft | 442 kts | 332° |
| 2026-04-23 22:12 | 31.71391 | -100.61807 | 25714 ft | 442 kts | 332° |
| 2026-04-23 22:12 | 31.74235 | -100.63186 | 25703 ft | 442 kts | 332° |
| 2026-04-23 22:12 | 31.77073 | -100.64565 | 25710 ft | 442 kts | 332° |
| 2026-04-23 22:12 | 31.79913 | -100.65945 | 25702 ft | 442 kts | 332° |
| 2026-04-23 22:13 | 31.82751 | -100.67326 | 25700 ft | 442 kts | 332° |
| 2026-04-23 22:13 | 31.85593 | -100.68709 | 25586 ft | 445 kts | 332° |
| 2026-04-23 22:13 | 31.88475 | -100.70114 | 25253 ft | 451 kts | 332° |
| 2026-04-23 22:13 | 31.91391 | -100.71534 | 24927 ft | 455 kts | 332° |
| 2026-04-23 22:14 | 31.94316 | -100.72961 | 24595 ft | 454 kts | 332° |
| 2026-04-23 22:14 | 31.97200 | -100.74368 | 24243 ft | 444 kts | 332° |
| 2026-04-23 22:14 | 32.00033 | -100.75752 | 23874 ft | 438 kts | 332° |
| 2026-04-23 22:14 | 32.02833 | -100.77120 | 23515 ft | 433 kts | 332° |
| 2026-04-23 22:15 | 32.05602 | -100.78473 | 23129 ft | 429 kts | 332° |
| 2026-04-23 22:15 | 32.08346 | -100.79815 | 22697 ft | 425 kts | 332° |
| 2026-04-23 22:15 | 32.11033 | -100.81132 | 22290 ft | 422 kts | 332° |
| 2026-04-23 22:15 | 32.13773 | -100.82475 | 21865 ft | 420 kts | 332° |
| 2026-04-23 22:16 | 32.16458 | -100.83791 | 21450 ft | 417 kts | 332° |
| 2026-04-23 22:16 | 32.19102 | -100.85089 | 21007 ft | 417 kts | 332° |
| 2026-04-23 22:16 | 32.21779 | -100.86402 | 20562 ft | 416 kts | 332° |
| 2026-04-23 22:16 | 32.24453 | -100.87715 | 20133 ft | 416 kts | 332° |
| 2026-04-23 22:17 | 32.27122 | -100.89027 | 19703 ft | 416 kts | 333° |
| 2026-04-23 22:17 | 32.29799 | -100.90344 | 19283 ft | 416 kts | 333° |
| 2026-04-23 22:17 | 32.32466 | -100.91657 | 18869 ft | 413 kts | 333° |
| 2026-04-23 22:17 | 32.35102 | -100.92958 | 18469 ft | 408 kts | 333° |
| 2026-04-23 22:18 | 32.37714 | -100.94243 | 18078 ft | 405 kts | 333° |
| 2026-04-23 22:18 | 32.40303 | -100.95517 | 17645 ft | 402 kts | 333° |
| 2026-04-23 22:18 | 32.42875 | -100.96787 | 17187 ft | 399 kts | 333° |
| 2026-04-23 22:18 | 32.45430 | -100.98052 | 16732 ft | 397 kts | 333° |
| 2026-04-23 22:19 | 32.47973 | -100.99306 | 16295 ft | 395 kts | 333° |
| 2026-04-23 22:19 | 32.50503 | -101.00559 | 15854 ft | 394 kts | 333° |
| 2026-04-23 22:19 | 32.53028 | -101.01804 | 15427 ft | 392 kts | 333° |
| 2026-04-23 22:19 | 32.55540 | -101.03048 | 15000 ft | 391 kts | 333° |
| 2026-04-23 22:20 | 32.58047 | -101.04290 | 14588 ft | 390 kts | 333° |
| 2026-04-23 22:20 | 32.60548 | -101.05528 | 14168 ft | 389 kts | 333° |
| 2026-04-23 22:20 | 32.63037 | -101.06762 | 13759 ft | 388 kts | 333° |
| 2026-04-23 22:20 | 32.65522 | -101.07994 | 13350 ft | 385 kts | 333° |
| 2026-04-23 22:21 | 32.67961 | -101.09205 | 13133 ft | 375 kts | 333° |
| 2026-04-23 22:21 | 32.70331 | -101.10383 | 13034 ft | 364 kts | 333° |
| 2026-04-23 22:21 | 32.72647 | -101.11533 | 12988 ft | 357 kts | 333° |
| 2026-04-23 22:21 | 32.74922 | -101.12663 | 12961 ft | 353 kts | 333° |
| 2026-04-23 22:22 | 32.77177 | -101.13791 | 12947 ft | 351 kts | 333° |
| 2026-04-23 22:22 | 32.79431 | -101.14909 | 12933 ft | 350 kts | 333° |
| 2026-04-23 22:22 | 32.81671 | -101.16024 | 12930 ft | 349 kts | 333° |
| 2026-04-23 22:22 | 32.83877 | -101.17122 | 12923 ft | 348 kts | 333° |
| 2026-04-23 22:23 | 32.86104 | -101.18233 | 12914 ft | 347 kts | 333° |
| 2026-04-23 22:23 | 32.88344 | -101.19352 | 12646 ft | 353 kts | 333° |
| 2026-04-23 22:23 | 32.90631 | -101.20495 | 12339 ft | 360 kts | 333° |
| 2026-04-23 22:23 | 32.92959 | -101.21659 | 12043 ft | 365 kts | 333° |
| 2026-04-23 22:24 | 32.95315 | -101.22833 | 11746 ft | 369 kts | 333° |
| 2026-04-23 22:24 | 32.97691 | -101.24024 | 11447 ft | 373 kts | 333° |
| 2026-04-23 22:24 | 33.00106 | -101.25233 | 11068 ft | 379 kts | 334° |
| 2026-04-23 22:24 | 33.02541 | -101.26451 | 10701 ft | 377 kts | 334° |
| 2026-04-23 22:25 | 33.04934 | -101.27647 | 10320 ft | 367 kts | 334° |
| 2026-04-23 22:25 | 33.07245 | -101.28805 | 9933 ft | 354 kts | 334° |
| 2026-04-23 22:25 | 33.09481 | -101.29928 | 9551 ft | 344 kts | 334° |
| 2026-04-23 22:25 | 33.11658 | -101.31018 | 9129 ft | 335 kts | 334° |
| 2026-04-23 22:26 | 33.13785 | -101.32086 | 8716 ft | 328 kts | 334° |
| 2026-04-23 22:26 | 33.15865 | -101.33133 | 8318 ft | 321 kts | 334° |
| 2026-04-23 22:26 | 33.17906 | -101.34158 | 7914 ft | 315 kts | 334° |
| 2026-04-23 22:26 | 33.19910 | -101.35166 | 7522 ft | 310 kts | 334° |
| 2026-04-23 22:27 | 33.21881 | -101.36159 | 7118 ft | 305 kts | 334° |
| 2026-04-23 22:27 | 33.23825 | -101.37136 | 6749 ft | 301 kts | 334° |
| 2026-04-23 22:27 | 33.25742 | -101.38104 | 6372 ft | 297 kts | 334° |
| 2026-04-23 22:27 | 33.27635 | -101.39056 | 6011 ft | 293 kts | 334° |
| 2026-04-23 22:28 | 33.29501 | -101.39997 | 5617 ft | 289 kts | 334° |
| 2026-04-23 22:28 | 33.31340 | -101.40940 | 5232 ft | 286 kts | 333° |
| 2026-04-23 22:28 | 33.33147 | -101.41867 | 5012 ft | 281 kts | 333° |
| 2026-04-23 22:28 | 33.34919 | -101.42780 | 4931 ft | 280 kts | 334° |
| 2026-04-23 22:29 | 33.36709 | -101.43707 | 4865 ft | 284 kts | 334° |
| 2026-04-23 22:29 | 33.38556 | -101.44640 | 4855 ft | 290 kts | 334° |
| 2026-04-23 22:29 | 33.40403 | -101.45580 | 4862 ft | 286 kts | 334° |
| 2026-04-23 22:29 | 33.42225 | -101.46506 | 4851 ft | 283 kts | 335° |
| 2026-04-23 22:30 | 33.44030 | -101.47423 | 4860 ft | 281 kts | 334° |
| 2026-04-23 22:30 | 33.45823 | -101.48331 | 4860 ft | 279 kts | 335° |
| 2026-04-23 22:30 | 33.47623 | -101.49189 | 4865 ft | 278 kts | 336° |
| 2026-04-23 22:30 | 33.49449 | -101.50042 | 4902 ft | 286 kts | 336° |
| 2026-04-23 22:31 | 33.51327 | -101.50920 | 4929 ft | 294 kts | 336° |
| 2026-04-23 22:31 | 33.53264 | -101.51820 | 4940 ft | 302 kts | 336° |
| 2026-04-23 22:31 | 33.55236 | -101.52744 | 4946 ft | 307 kts | 336° |
| 2026-04-23 22:31 | 33.57240 | -101.53687 | 4968 ft | 312 kts | 336° |
| 2026-04-23 22:32 | 33.59200 | -101.54600 | 4956 ft | 294 kts | 336° |
| 2026-04-23 22:32 | 33.61068 | -101.55465 | 4947 ft | 282 kts | 336° |
| 2026-04-23 22:32 | 33.62883 | -101.56304 | 4909 ft | 281 kts | 336° |
| 2026-04-23 22:32 | 33.64682 | -101.57292 | 4862 ft | 286 kts | 321° |
| 2026-04-23 22:33 | 33.65839 | -101.59021 | 4779 ft | 254 kts | 286° |
| 2026-04-23 22:33 | 33.66236 | -101.60977 | 4726 ft | 232 kts | 275° |
| 2026-04-23 22:33 | 33.66397 | -101.62818 | 4674 ft | 213 kts | 267° |
| 2026-04-23 22:33 | 33.66426 | -101.64577 | 4696 ft | 215 kts | 265° |
| 2026-04-23 22:34 | 33.66376 | -101.66409 | 4732 ft | 222 kts | 264° |
| 2026-04-23 22:34 | 33.66331 | -101.68275 | 4716 ft | 224 kts | 264° |
| 2026-04-23 22:34 | 33.66295 | -101.70097 | 4778 ft | 213 kts | 264° |
| 2026-04-23 22:34 | 33.66261 | -101.71820 | 4740 ft | 205 kts | 264° |
| 2026-04-23 22:35 | 33.66247 | -101.73507 | 4442 ft | 199 kts | 265° |
| 2026-04-23 22:35 | 33.66250 | -101.75098 | 4172 ft | 183 kts | 266° |
| 2026-04-23 22:35 | 33.66248 | -101.76552 | 3958 ft | 167 kts | 264° |
| 2026-04-23 22:35 | 33.66247 | -101.77913 | 3705 ft | 161 kts | 268° |
| 2026-04-23 22:36 | 33.66230 | -101.79184 | 3395 ft | 146 kts | 271° |
| 2026-04-23 22:36 | 33.66237 | -101.80279 | 3264 ft | 105 kts | 269° |
| 2026-04-23 22:36 | 33.66231 | -101.80962 | 3260 ft | 64 kts | 270° |
| 2026-04-23 22:36 | 33.66229 | -101.81449 | 3264 ft | 54 kts | 270° |
| 2026-04-23 22:37 | 33.66225 | -101.81860 | 3268 ft | 44 kts | 269° |
| 2026-04-23 22:37 | 33.66221 | -101.82174 | 3267 ft | 30 kts | 261° |
| 2026-04-23 22:37 | 33.66129 | -101.82268 | 3265 ft | 0 kts | 188° |
| 2026-04-23 22:37 | 33.66128 | -101.82268 | 3265 ft | 0 kts | 188° |
| 2026-04-23 22:38 | 33.66116 | -101.82269 | 3266 ft | 5 kts | 182° |
| 2026-04-23 22:38 | 33.66058 | -101.82278 | 3266 ft | 12 kts | 206° |
| 2026-04-23 22:38 | 33.66011 | -101.82363 | 3264 ft | 14 kts | 216° |
| 2026-04-23 22:38 | 33.65913 | -101.82365 | 3264 ft | 16 kts | 162° |
| 2026-04-23 22:39 | 33.65810 | -101.82312 | 3262 ft | 12 kts | 152° |
| 2026-04-23 22:39 | 33.65752 | -101.82260 | 3263 ft | 10 kts | 175° |
| 2026-04-23 22:39 | 33.65734 | -101.82259 | 3261 ft | 0 kts | 180° |